Time;durP1;ratioP1;P1;durP2;ratioP2;P2;SDS_P1;SDS_P2;PMS_P1;PMS_P2;Temp;Humidity;BMP_temperature;BMP_pressure;BME280_temperature;BME280_humidity;BME280_pressure;Samples;Min_cycle;Max_cycle;Signal;HPM_P1;HPM_P2
2022/06/11 00:02:20;;;;;;;2.83;2.17;;;21.90;63.50;;;;;;5055494;28;20037;-62
2022/06/11 00:04:45;;;;;;;3.05;2.15;;;21.90;63.50;;;;;;5057538;28;20040;-62
2022/06/11 00:07:15;;;;;;;2.55;1.90;;;21.90;63.40;;;;;;5053690;28;20066;-62
2022/06/11 00:09:41;;;;;;;3.22;2.03;;;21.90;63.50;;;;;;5055610;28;20472;-62
2022/06/11 00:12:09;;;;;;;2.08;1.88;;;21.90;63.50;;;;;;5054362;28;20068;-62
2022/06/11 00:14:36;;;;;;;2.22;2.03;;;21.90;63.50;;;;;;5052244;28;20677;-63
2022/06/11 00:17:04;;;;;;;3.70;2.30;;;21.90;63.50;;;;;;5052464;28;20037;-62
2022/06/11 00:19:31;;;;;;;3.15;1.90;;;21.90;63.50;;;;;;5055907;28;20036;-62
2022/06/11 00:21:57;;;;;;;2.20;2.00;;;21.90;63.50;;;;;;5038132;28;20415;-62
2022/06/11 00:24:25;;;;;;;3.38;2.22;;;21.90;63.40;;;;;;5052908;28;20041;-62
2022/06/11 00:26:52;;;;;;;2.00;1.90;;;21.90;63.50;;;;;;5056643;28;20060;-62
2022/06/11 00:29:21;;;;;;;2.25;1.75;;;21.90;63.40;;;;;;5053938;28;20039;-62
2022/06/11 00:31:47;;;;;;;2.63;1.80;;;21.90;63.40;;;;;;5053198;28;20110;-62
2022/06/11 00:34:13;;;;;;;2.83;1.90;;;21.90;63.40;;;;;;5055116;28;20177;-62
2022/06/11 00:36:42;;;;;;;3.03;2.03;;;21.90;63.30;;;;;;5053851;28;20435;-62
2022/06/11 00:39:09;;;;;;;2.05;1.95;;;21.90;63.40;;;;;;5054158;28;20068;-62
2022/06/11 00:41:38;;;;;;;3.70;1.90;;;21.90;63.40;;;;;;5056056;28;20116;-62
2022/06/11 00:44:04;;;;;;;2.78;1.80;;;21.90;63.30;;;;;;5053830;28;20041;-62
2022/06/11 00:46:39;;;;;;;2.58;1.80;;;21.90;64.00;;;;;;5037386;28;20048;-62
2022/06/11 00:49:30;;;;;;;2.70;1.60;;;21.90;63.30;;;;;;5052438;28;20155;-62
2022/06/11 00:52:09;;;;;;;;;;;21.90;63.30;;;;;;5039398;28;20101;-62
2022/06/11 00:54:38;;;;;;;2.67;1.63;;;21.90;63.20;;;;;;5054071;28;20768;-62
2022/06/11 00:57:05;;;;;;;2.67;1.77;;;21.90;63.40;;;;;;5052426;28;20033;-62
2022/06/11 00:59:40;;;;;;;2.60;1.90;;;21.80;63.20;;;;;;5055399;28;20492;-62
2022/06/11 01:02:06;;;;;;;1.92;1.73;;;21.90;63.20;;;;;;5035008;28;20052;-62
2022/06/11 01:05:06;;;;;;;2.25;1.83;;;21.90;63.30;;;;;;5037000;28;20041;-62
2022/06/11 01:07:53;;;;;;;3.23;2.00;;;21.90;63.20;;;;;;5052254;28;20053;-62
2022/06/11 01:10:43;;;;;;;1.77;1.67;;;21.90;63.20;;;;;;5054946;28;20079;-62
2022/06/11 01:13:14;;;;;;;2.45;1.80;;;21.90;63.80;;;;;;5053609;28;20040;-62
2022/06/11 01:15:49;;;;;;;2.88;1.85;;;21.90;63.10;;;;;;5053838;28;20052;-62
2022/06/11 01:18:33;;;;;;;2.92;2.03;;;21.90;63.10;;;;;;5034990;28;20052;-62
2022/06/11 01:21:19;;;;;;;2.67;1.50;;;21.90;63.10;;;;;;5053954;28;20044;-62
2022/06/11 01:24:26;;;;;;;2.00;1.80;;;21.80;62.90;;;;;;5052864;28;20063;-62
2022/06/11 01:27:01;;;;;;;1.83;1.63;;;21.90;62.90;;;;;;5052743;28;20040;-62
2022/06/11 01:29:49;;;;;;;1.50;1.40;;;21.80;62.90;;;;;;5054385;28;20037;-62
2022/06/11 01:32:47;;;;;;;1.77;1.40;;;21.90;63.00;;;;;;5051964;28;20049;-62
2022/06/11 01:35:42;;;;;;;1.60;1.50;;;21.90;62.90;;;;;;5053206;28;20136;-62
2022/06/11 01:38:30;;;;;;;1.95;1.75;;;21.80;62.80;;;;;;5044255;28;20090;-62
2022/06/11 01:41:30;;;;;;;1.55;1.40;;;21.80;62.90;;;;;;5054124;28;20400;-62
2022/06/11 01:44:03;;;;;;;3.25;1.70;;;21.90;62.70;;;;;;5050903;28;20763;-62
2022/06/11 01:46:44;;;;;;;2.58;1.77;;;21.80;62.80;;;;;;5052506;28;20460;-62
2022/06/11 01:49:25;;;;;;;2.38;1.65;;;21.80;62.70;;;;;;5051303;28;20051;-62
2022/06/11 01:52:20;;;;;;;1.50;1.40;;;21.80;62.70;;;;;;5051531;28;20045;-62
2022/06/11 01:54:57;;;;;;;1.92;1.30;;;21.80;62.80;;;;;;5050793;28;20029;-62
2022/06/11 01:58:00;;;;;;;1.60;1.50;;;21.80;62.70;;;;;;5052288;28;20082;-62
2022/06/11 02:00:31;;;;;;;1.80;1.50;;;21.80;62.60;;;;;;5048983;28;20056;-62
2022/06/11 02:03:04;;;;;;;2.15;1.55;;;21.80;62.70;;;;;;5052826;28;20044;-62
2022/06/11 02:05:50;;;;;;;1.90;1.60;;;21.80;62.70;;;;;;5052935;28;20089;-62
2022/06/11 02:08:24;;;;;;;1.60;1.50;;;21.80;62.60;;;;;;5050841;28;20040;-62
2022/06/11 02:11:11;;;;;;;1.60;1.50;;;21.80;62.70;;;;;;5052256;28;20094;-62
2022/06/11 02:13:53;;;;;;;1.65;1.55;;;21.80;62.60;;;;;;5054238;28;20094;-62
2022/06/11 02:16:32;;;;;;;2.45;2.05;;;21.80;62.60;;;;;;5051967;28;20044;-62
2022/06/11 02:19:02;;;;;;;2.00;1.63;;;21.80;62.60;;;;;;5052257;28;21003;-62
2022/06/11 02:21:32;;;;;;;1.65;1.55;;;21.80;62.60;;;;;;5053462;28;20044;-62
2022/06/11 02:24:05;;;;;;;2.45;1.65;;;21.80;62.60;;;;;;5052794;28;20469;-62
2022/06/11 02:26:36;;;;;;;2.50;1.83;;;21.80;62.50;;;;;;5049569;28;20032;-62
2022/06/11 02:29:05;;;;;;;1.73;1.40;;;21.80;62.50;;;;;;5052835;28;20048;-62
2022/06/11 02:31:37;;;;;;;1.65;1.52;;;21.80;62.50;;;;;;5051310;28;20037;-62
2022/06/11 02:34:06;;;;;;;2.45;1.52;;;21.80;62.50;;;;;;5053758;28;20405;-62
2022/06/11 02:36:44;;;;;;;2.30;1.58;;;21.80;62.50;;;;;;5051423;28;20178;-62
2022/06/11 02:39:10;;;;;;;1.73;1.60;;;21.80;62.50;;;;;;5055201;28;20045;-62
2022/06/11 02:41:36;;;;;;;2.10;1.70;;;21.80;62.60;;;;;;5054434;28;20124;-62
2022/06/11 02:44:02;;;;;;;2.45;1.75;;;21.80;62.50;;;;;;5051291;28;20112;-62
2022/06/11 02:46:43;;;;;;;1.58;1.45;;;21.80;62.50;;;;;;5051461;28;20036;-62
2022/06/11 02:49:29;;;;;;;;;;;21.80;62.50;;;;;;5051559;28;20585;-62
2022/06/11 02:51:58;;;;;;;2.38;1.60;;;21.80;62.40;;;;;;5052664;28;19920;-62
2022/06/11 02:54:25;;;;;;;2.05;1.42;;;21.80;62.70;;;;;;5052639;28;20033;-62
2022/06/11 02:56:53;;;;;;;1.83;1.73;;;21.80;62.60;;;;;;5053355;28;20037;-62
2022/06/11 02:59:20;;;;;;;1.80;1.70;;;21.80;62.50;;;;;;5052018;28;20083;-62
2022/06/11 03:01:47;;;;;;;2.80;1.80;;;21.80;62.60;;;;;;5053679;28;20045;-62
2022/06/11 03:04:13;;;;;;;2.03;1.83;;;21.80;62.60;;;;;;5052799;28;20048;-62
2022/06/11 03:06:41;;;;;;;2.25;1.85;;;21.80;62.60;;;;;;5053438;28;20072;-62
2022/06/11 03:09:08;;;;;;;1.80;1.70;;;21.80;62.60;;;;;;5050164;28;20496;-62
2022/06/11 03:11:34;;;;;;;2.20;1.60;;;21.80;62.60;;;;;;5051163;28;20124;-62
2022/06/11 03:13:59;;;;;;;2.03;1.88;;;21.80;62.60;;;;;;5053067;28;20139;-62
2022/06/11 03:16:26;;;;;;;3.45;1.70;;;21.80;62.60;;;;;;5051400;28;20036;-62
2022/06/11 03:18:51;;;;;;;1.80;1.70;;;21.80;62.50;;;;;;5036020;28;20040;-62
2022/06/11 03:21:18;;;;;;;2.50;1.92;;;21.80;62.50;;;;;;5051445;28;20033;-62
2022/06/11 03:23:44;;;;;;;1.60;1.50;;;21.80;62.50;;;;;;5053424;28;20033;-62
2022/06/11 03:26:10;;;;;;;1.92;1.83;;;21.80;62.50;;;;;;5053096;28;20465;-62
2022/06/11 03:28:36;;;;;;;2.33;1.73;;;21.80;62.50;;;;;;5032898;28;20132;-63
2022/06/11 03:31:06;;;;;;;2.13;1.58;;;21.80;62.50;;;;;;5056746;28;20037;-62
2022/06/11 03:33:35;;;;;;;1.90;1.70;;;21.80;62.50;;;;;;5055516;28;20048;-63
2022/06/11 03:36:05;;;;;;;2.08;1.60;;;21.80;63.10;;;;;;5038769;28;20060;-62
2022/06/11 03:38:31;;;;;;;1.45;1.35;;;21.80;62.40;;;;;;5056209;28;20040;-62
2022/06/11 03:40:57;;;;;;;1.83;1.52;;;21.80;62.30;;;;;;5056408;28;20056;-62
2022/06/11 03:43:23;;;;;;;1.50;1.40;;;21.80;62.30;;;;;;5055063;28;20044;-62
2022/06/11 03:45:50;;;;;;;3.00;1.75;;;21.80;62.30;;;;;;5055990;28;20129;-62
2022/06/11 03:48:17;;;;;;;1.88;1.38;;;21.80;62.20;;;;;;5054190;28;20126;-62
2022/06/11 03:50:42;;;;;;;1.60;1.42;;;21.80;62.30;;;;;;5055777;28;20048;-62
2022/06/11 03:53:10;;;;;;;2.03;1.38;;;21.80;62.20;;;;;;5052540;28;20575;-62
2022/06/11 03:55:37;;;;;;;2.55;1.40;;;21.70;62.10;;;;;;5054402;28;20040;-62
2022/06/11 03:58:03;;;;;;;1.83;1.63;;;21.80;62.10;;;;;;5055035;28;20080;-62
2022/06/11 04:03:17;;;;;;;3.38;1.85;;;21.80;62.00;;;;;;5053965;28;20098;-62
2022/06/11 04:05:44;;;;;;;2.45;1.83;;;21.80;61.90;;;;;;5055523;28;20684;-62
2022/06/11 04:08:10;;;;;;;2.83;1.50;;;21.80;61.90;;;;;;5055525;28;20155;-62
2022/06/11 04:10:37;;;;;;;2.67;1.50;;;21.80;61.80;;;;;;5053540;28;20546;-62
2022/06/11 04:13:03;;;;;;;3.50;1.80;;;21.80;61.90;;;;;;5054024;28;20120;-62
2022/06/11 04:15:29;;;;;;;2.35;1.38;;;21.80;61.80;;;;;;5053703;28;20043;-62
2022/06/11 04:17:55;;;;;;;2.88;1.70;;;21.80;61.80;;;;;;5055509;28;20033;-62
2022/06/11 04:20:21;;;;;;;2.20;1.60;;;21.70;61.70;;;;;;5053581;28;20063;-62
2022/06/11 04:22:46;;;;;;;3.35;1.42;;;21.70;61.60;;;;;;5055073;28;20048;-62
2022/06/11 04:25:14;;;;;;;2.35;1.50;;;21.70;61.60;;;;;;5054568;28;20049;-62
2022/06/11 04:27:40;;;;;;;2.53;1.40;;;21.70;61.60;;;;;;5055215;28;20420;-62
2022/06/11 04:30:08;;;;;;;2.03;1.50;;;21.70;61.60;;;;;;5053583;28;20047;-62
2022/06/11 04:32:34;;;;;;;3.42;1.73;;;21.70;61.60;;;;;;5055319;28;20050;-62
2022/06/11 04:35:01;;;;;;;3.03;1.48;;;21.70;61.60;;;;;;5055520;28;20476;-62
2022/06/11 04:37:29;;;;;;;2.92;1.52;;;21.70;61.50;;;;;;5037341;28;20112;-62
2022/06/11 04:39:57;;;;;;;2.25;1.40;;;21.70;61.60;;;;;;5056286;28;20041;-62
2022/06/11 04:42:24;;;;;;;3.10;1.60;;;21.80;61.60;;;;;;5054647;28;20047;-62
2022/06/11 04:44:50;;;;;;;2.15;1.83;;;21.70;61.50;;;;;;5055413;28;20040;-62
2022/06/11 04:47:21;;;;;;;2.00;1.60;;;21.70;61.50;;;;;;5054138;28;20040;-62
2022/06/11 04:49:51;;;;;;;1.67;1.40;;;21.70;61.50;;;;;;5037377;28;20057;-62
2022/06/11 04:52:16;;;;;;;2.50;1.50;;;21.70;61.50;;;;;;5056884;28;20043;-62
2022/06/11 04:54:42;;;;;;;2.83;1.60;;;21.70;61.50;;;;;;5051391;28;20044;-62
2022/06/11 04:57:09;;;;;;;2.17;1.63;;;21.70;61.50;;;;;;5054880;28;20036;-62
2022/06/11 04:59:35;;;;;;;4.22;2.00;;;21.70;62.20;;;;;;5054060;28;20119;-63
2022/06/11 05:02:02;;;;;;;2.90;1.45;;;21.70;61.40;;;;;;5056948;28;20562;-62
2022/06/11 05:04:28;;;;;;;2.25;1.50;;;21.70;61.40;;;;;;5053104;28;20060;-62
2022/06/11 05:06:53;;;;;;;2.33;1.60;;;21.70;61.50;;;;;;5037054;28;20040;-62
2022/06/11 05:09:22;;;;;;;1.48;1.23;;;21.70;61.50;;;;;;5036101;28;20048;-62
2022/06/11 05:11:49;;;;;;;3.72;1.58;;;21.70;61.50;;;;;;5053776;28;20024;-62
2022/06/11 05:14:15;;;;;;;1.70;1.58;;;21.70;61.40;;;;;;5052788;28;20199;-62
2022/06/11 05:16:43;;;;;;;3.63;1.77;;;21.70;61.40;;;;;;5053239;28;20040;-62
2022/06/11 05:19:11;;;;;;;2.47;1.70;;;21.70;61.50;;;;;;5043628;28;20404;-62
2022/06/11 05:21:37;;;;;;;3.30;1.77;;;21.70;61.50;;;;;;5050474;28;20044;-62
2022/06/11 05:24:03;;;;;;;2.53;1.60;;;21.70;61.40;;;;;;5055112;28;20090;-62
2022/06/11 05:26:52;;;;;;;2.15;1.45;;;21.70;61.50;;;;;;5052321;28;20054;-62
2022/06/11 05:29:25;;;;;;;2.20;1.38;;;21.70;61.50;;;;;;5054824;28;20088;-62
2022/06/11 05:31:52;;;;;;;2.10;1.60;;;21.70;61.50;;;;;;5053841;28;20049;-62
2022/06/11 05:34:18;;;;;;;3.50;1.58;;;21.70;61.50;;;;;;5055232;28;20056;-62
2022/06/11 05:36:44;;;;;;;1.42;1.23;;;21.70;61.50;;;;;;5054268;28;20551;-62
2022/06/11 05:39:09;;;;;;;3.33;1.70;;;21.70;61.60;;;;;;5055423;28;20098;-62
2022/06/11 05:41:35;;;;;;;1.85;1.48;;;21.70;61.60;;;;;;5054138;28;20468;-62
2022/06/11 05:44:01;;;;;;;2.63;1.30;;;21.70;61.60;;;;;;5051475;28;20048;-62
2022/06/11 05:46:27;;;;;;;1.95;1.45;;;21.70;61.60;;;;;;5048634;28;20131;-61
2022/06/11 05:49:00;;;;;;;1.58;1.38;;;21.70;61.70;;;;;;5052514;28;20518;-62
2022/06/11 05:51:31;;;;;;;1.77;1.60;;;21.70;61.60;;;;;;5050228;28;20044;-62
2022/06/11 05:54:01;;;;;;;3.13;1.42;;;21.70;61.60;;;;;;5051431;28;20082;-62
2022/06/11 05:56:28;;;;;;;2.20;1.60;;;21.70;61.60;;;;;;5052990;28;20485;-62
2022/06/11 05:58:57;;;;;;;2.47;1.48;;;21.70;61.60;;;;;;5053540;28;20072;-62
2022/06/11 06:01:26;;;;;;;2.78;1.40;;;21.70;61.60;;;;;;5053963;28;20040;-62
2022/06/11 06:03:51;;;;;;;2.67;1.30;;;21.70;61.60;;;;;;5034732;28;21343;-62
2022/06/11 06:06:17;;;;;;;4.05;1.88;;;21.70;61.60;;;;;;5053027;28;20040;-62
2022/06/11 06:08:44;;;;;;;2.75;1.60;;;21.70;62.30;;;;;;5052905;28;21389;-62
2022/06/11 06:11:09;;;;;;;3.08;1.83;;;21.70;61.60;;;;;;5050991;28;20044;-62
2022/06/11 06:13:47;;;;;;;4.50;1.75;;;21.70;61.60;;;;;;5053788;28;20036;-63
2022/06/11 06:16:22;;;;;;;3.38;1.33;;;21.70;61.50;;;;;;5051748;28;20051;-62
2022/06/11 06:18:49;;;;;;;4.05;1.70;;;21.70;61.50;;;;;;5036614;28;20459;-62
2022/06/11 06:21:16;;;;;;;3.83;1.60;;;21.70;61.50;;;;;;5053717;28;20037;-62
2022/06/11 06:23:42;;;;;;;5.15;1.85;;;21.70;61.50;;;;;;5052411;28;20067;-62
2022/06/11 06:26:08;;;;;;;3.30;1.40;;;21.70;61.40;;;;;;5053830;28;20127;-62
2022/06/11 06:28:34;;;;;;;4.78;1.73;;;21.70;61.30;;;;;;5051996;28;20506;-62
2022/06/11 06:31:02;;;;;;;4.30;1.80;;;21.70;61.20;;;;;;5054511;28;20036;-62
2022/06/11 06:33:30;;;;;;;4.85;1.63;;;21.70;61.20;;;;;;5052117;28;20076;-62
2022/06/11 06:35:57;;;;;;;9.90;2.33;;;21.70;61.20;;;;;;5025099;28;20040;-63
2022/06/11 06:38:22;;;;;;;7.38;2.50;;;21.70;61.00;;;;;;5054790;28;20040;-63
2022/06/11 06:40:48;;;;;;;5.22;1.90;;;21.70;60.90;;;;;;5049690;28;20067;-62
2022/06/11 06:43:15;;;;;;;7.30;2.00;;;21.70;61.20;;;;;;5051623;28;20040;-62
2022/06/11 06:45:41;;;;;;;6.47;1.88;;;21.70;61.50;;;;;;5053465;28;20037;-62
2022/06/11 06:48:06;;;;;;;5.65;2.53;;;21.70;61.70;;;;;;5054778;28;20485;-62
2022/06/11 06:50:32;;;;;;;7.00;2.40;;;21.70;61.70;;;;;;5034644;28;20068;-63
2022/06/11 06:52:58;;;;;;;7.47;2.22;;;21.70;61.70;;;;;;5054104;28;20477;-63
2022/06/11 06:55:24;;;;;;;8.02;2.30;;;21.70;61.80;;;;;;5053865;28;20043;-63
2022/06/11 06:57:50;;;;;;;7.45;2.63;;;21.70;61.70;;;;;;5052090;28;20049;-62
2022/06/11 07:00:17;;;;;;;8.25;2.60;;;21.70;61.70;;;;;;5055066;28;20658;-63
2022/06/11 07:02:44;;;;;;;8.63;2.53;;;21.70;61.70;;;;;;5056129;28;20037;-62
2022/06/11 07:05:12;;;;;;;9.20;2.80;;;21.80;61.70;;;;;;5056511;28;20041;-62
2022/06/11 07:07:38;;;;;;;6.65;2.17;;;21.70;61.60;;;;;;5041747;28;20047;-62
2022/06/11 07:10:04;;;;;;;7.25;2.78;;;21.80;61.70;;;;;;5054093;28;20053;-62
2022/06/11 07:12:30;;;;;;;5.55;2.20;;;21.70;61.60;;;;;;5051752;28;20037;-62
2022/06/11 07:14:55;;;;;;;8.65;2.60;;;21.80;61.60;;;;;;5056570;28;20531;-63
2022/06/11 07:17:21;;;;;;;8.63;2.70;;;21.70;61.50;;;;;;5058806;28;20052;-63
2022/06/11 07:20:12;;;;;;;11.18;3.13;;;21.80;61.50;;;;;;5057703;28;20119;-63
2022/06/11 07:22:45;;;;;;;9.52;3.03;;;21.80;61.40;;;;;;5055569;28;20041;-62
2022/06/11 07:25:12;;;;;;;8.68;2.78;;;21.80;61.40;;;;;;5057683;28;20419;-62
2022/06/11 07:27:45;;;;;;;8.60;2.63;;;21.80;61.40;;;;;;5058972;28;20708;-62
2022/06/11 07:30:14;;;;;;;9.00;3.17;;;21.80;61.40;;;;;;5058956;28;20076;-63
2022/06/11 07:32:42;;;;;;;13.48;3.67;;;21.70;61.30;;;;;;5053371;28;20056;-62
2022/06/11 07:35:13;;;;;;;11.95;3.33;;;21.80;61.30;;;;;;5055241;28;20044;-63
2022/06/11 07:37:40;;;;;;;7.10;2.72;;;21.80;61.30;;;;;;5055846;28;20059;-62
2022/06/11 07:40:07;;;;;;;10.07;3.25;;;21.80;61.20;;;;;;5057847;28;20044;-63
2022/06/11 07:42:33;;;;;;;9.20;3.42;;;21.70;61.20;;;;;;5057268;28;20164;-63
2022/06/11 07:44:59;;;;;;;7.25;2.63;;;21.80;61.20;;;;;;5056083;28;20123;-62
2022/06/11 07:50:12;;;;;;;7.72;3.00;;;21.80;61.10;;;;;;5038806;28;20056;-63
2022/06/11 07:52:42;;;;;;;9.45;3.05;;;21.80;61.10;;;;;;5058209;28;20037;-64
2022/06/11 07:55:10;;;;;;;11.15;3.50;;;21.80;61.00;;;;;;5058017;28;20021;-63
2022/06/11 07:57:37;;;;;;;7.57;3.28;;;21.80;60.70;;;;;;5057493;28;20067;-62
2022/06/11 08:00:06;;;;;;;13.25;3.90;;;21.80;60.80;;;;;;5053247;28;20110;-63
2022/06/11 08:02:32;;;;;;;8.93;3.63;;;21.80;60.60;;;;;;5055316;28;20044;-63
2022/06/11 08:04:57;;;;;;;11.95;3.58;;;21.70;60.50;;;;;;5057251;28;20033;-63
2022/06/11 08:07:25;;;;;;;10.35;3.38;;;21.80;60.60;;;;;;5055052;28;20099;-63
2022/06/11 08:09:51;;;;;;;11.07;3.42;;;21.70;60.80;;;;;;5055013;28;20048;-63
2022/06/11 08:12:16;;;;;;;11.20;3.33;;;21.80;60.80;;;;;;5053850;28;20029;-63
2022/06/11 08:14:43;;;;;;;13.80;3.33;;;21.80;60.50;;;;;;5053608;28;20036;-63
2022/06/11 08:17:08;;;;;;;14.93;4.05;;;21.70;60.30;;;;;;5053792;28;20848;-63
2022/06/11 08:19:34;;;;;;;10.50;3.03;;;21.70;60.00;;;;;;5053953;28;20039;-63
2022/06/11 08:21:59;;;;;;;9.38;3.17;;;21.80;60.30;;;;;;5053889;28;20079;-63
2022/06/11 08:24:25;;;;;;;13.50;3.88;;;21.80;60.50;;;;;;5054039;28;20037;-62
2022/06/11 08:26:51;;;;;;;11.57;3.80;;;21.80;60.40;;;;;;5036277;28;20416;-63
2022/06/11 08:29:16;;;;;;;11.80;4.28;;;21.70;60.10;;;;;;5058203;28;20046;-63
2022/06/11 08:31:42;;;;;;;11.38;3.47;;;21.70;60.00;;;;;;5052441;28;20080;-63
2022/06/11 08:34:07;;;;;;;11.48;3.20;;;21.70;60.20;;;;;;5049473;28;20520;-63
2022/06/11 08:36:33;;;;;;;12.05;3.92;;;21.70;60.30;;;;;;5051036;28;20045;-63
2022/06/11 08:38:58;;;;;;;12.77;3.75;;;21.70;60.40;;;;;;5054194;28;20041;-63
2022/06/11 08:41:32;;;;;;;11.98;3.40;;;21.80;60.70;;;;;;5053331;28;20039;-62
2022/06/11 08:44:04;;;;;;;15.02;3.97;;;21.80;60.90;;;;;;5036275;28;20040;-63
2022/06/11 08:46:33;;;;;;;14.15;4.30;;;21.80;61.10;;;;;;5052993;28;20166;-63
2022/06/11 08:49:05;;;;;;;9.80;3.55;;;21.80;61.20;;;;;;5053302;28;20041;-63
2022/06/11 08:51:42;;;;;;;14.25;3.90;;;21.80;61.10;;;;;;5055728;28;20991;-63
2022/06/11 08:54:12;;;;;;;15.35;3.90;;;21.80;61.20;;;;;;5056253;28;20064;-63
2022/06/11 08:56:46;;;;;;;13.10;3.45;;;21.70;61.10;;;;;;5055954;28;20041;-63
2022/06/11 08:59:31;;;;;;;9.98;3.47;;;21.80;61.10;;;;;;5055818;28;20046;-63
2022/06/11 09:02:26;;;;;;;13.07;3.63;;;21.80;61.00;;;;;;5052398;28;20049;-63
2022/06/11 09:05:37;;;;;;;13.77;3.30;;;21.80;61.20;;;;;;5053993;28;20053;-63
2022/06/11 09:08:21;;;;;;;13.00;3.03;;;21.80;61.30;;;;;;5054571;28;20048;-63
2022/06/11 09:11:22;;;;;;;11.68;3.47;;;21.70;61.20;;;;;;5053608;28;20076;-63
2022/06/11 09:14:08;;;;;;;14.27;4.03;;;21.80;61.00;;;;;;5054453;28;20039;-63
2022/06/11 09:17:06;;;;;;;13.70;3.63;;;21.80;60.90;;;;;;5050826;28;20401;-63
2022/06/11 09:20:09;;;;;;;11.00;3.35;;;21.80;60.30;;;;;;5042871;28;20059;-63
2022/06/11 09:23:13;;;;;;;12.05;3.58;;;21.80;60.20;;;;;;5046943;28;20057;-62
2022/06/11 09:26:00;;;;;;;10.60;2.80;;;21.80;60.30;;;;;;5053608;28;20044;-62
2022/06/11 09:28:49;;;;;;;12.95;4.05;;;21.80;60.10;;;;;;5051587;28;20044;-62
2022/06/11 09:31:30;;;;;;;11.00;3.53;;;21.80;60.00;;;;;;5054870;28;20040;-62
2022/06/11 09:34:07;;;;;;;;;;;21.80;59.90;;;;;;5054047;28;20063;-62
2022/06/11 09:36:38;;;;;;;12.40;3.38;;;21.70;59.50;;;;;;5054172;28;19926;-62
2022/06/11 09:39:09;;;;;;;11.43;3.20;;;21.70;59.80;;;;;;5054994;28;20041;-62
2022/06/11 09:41:56;;;;;;;12.40;3.13;;;21.70;58.80;;;;;;5053677;28;20060;-63
2022/06/11 09:44:46;;;;;;;9.68;2.58;;;21.70;59.00;;;;;;5052875;28;20155;-62
2022/06/11 09:47:43;;;;;;;9.85;3.13;;;21.70;58.90;;;;;;5051732;28;20076;-62
2022/06/11 09:50:28;;;;;;;11.90;3.63;;;21.70;58.80;;;;;;5021970;28;20130;-62
2022/06/11 09:53:30;;;;;;;11.07;2.63;;;21.70;58.80;;;;;;5054544;28;20033;-62
2022/06/11 09:56:14;;;;;;;9.80;3.20;;;21.70;58.80;;;;;;5053304;28;20127;-62
2022/06/11 09:59:06;;;;;;;8.25;2.92;;;21.70;58.80;;;;;;5052205;28;20128;-63
2022/06/11 10:01:58;;;;;;;10.95;3.60;;;21.80;59.10;;;;;;5055204;28;20497;-63
2022/06/11 10:04:33;;;;;;;8.77;2.90;;;21.80;59.00;;;;;;5007714;28;20151;-63
2022/06/11 10:07:22;;;;;;;10.63;3.08;;;21.80;59.00;;;;;;5053066;28;20052;-63
2022/06/11 10:10:03;;;;;;;10.90;3.20;;;21.80;58.90;;;;;;5050154;28;20065;-63
2022/06/11 10:12:51;;;;;;;9.85;2.85;;;21.80;58.60;;;;;;5052838;28;20029;-63
2022/06/11 10:15:23;;;;;;;9.40;2.90;;;21.80;58.50;;;;;;5053517;28;20079;-63
2022/06/11 10:17:59;;;;;;;10.80;3.40;;;21.80;58.30;;;;;;5052628;28;20092;-64
2022/06/11 10:20:34;;;;;;;8.80;3.08;;;21.80;58.00;;;;;;5055987;28;20178;-62
2022/06/11 10:23:16;;;;;;;8.02;2.60;;;21.80;57.80;;;;;;5033211;28;20610;-63
2022/06/11 10:25:50;;;;;;;10.25;2.83;;;21.80;57.60;;;;;;5053049;28;20044;-63
2022/06/11 10:28:31;;;;;;;8.05;2.58;;;21.80;57.60;;;;;;5050595;28;20669;-63
2022/06/11 10:31:10;;;;;;;8.50;2.83;;;21.80;57.60;;;;;;5052267;28;20093;-63
2022/06/11 10:33:48;;;;;;;9.65;2.70;;;21.80;57.60;;;;;;5041335;28;20044;-62
2022/06/11 10:36:36;;;;;;;8.85;2.55;;;21.80;57.50;;;;;;5007010;28;20041;-63
2022/06/11 10:39:10;;;;;;;8.18;2.88;;;21.80;57.40;;;;;;4999986;28;20045;-62
2022/06/11 10:41:48;;;;;;;9.23;2.97;;;21.80;57.20;;;;;;5028070;28;20037;-62
2022/06/11 10:44:41;;;;;;;8.70;2.72;;;21.80;57.30;;;;;;5028869;28;20091;-62
2022/06/11 10:47:32;;;;;;;4.97;2.35;;;21.80;57.10;;;;;;5021525;28;20527;-62
2022/06/11 10:50:09;;;;;;;11.52;3.30;;;21.80;57.40;;;;;;5032732;28;20041;-62
2022/06/11 10:52:43;;;;;;;9.15;3.25;;;21.80;57.60;;;;;;5033978;28;20504;-62
2022/06/11 10:55:15;;;;;;;8.73;2.53;;;21.80;57.60;;;;;;5015169;28;20115;-62
2022/06/11 10:57:41;;;;;;;8.50;2.63;;;21.80;57.60;;;;;;5030270;28;20037;-62
2022/06/11 11:00:13;;;;;;;11.15;2.92;;;21.80;57.70;;;;;;5034556;28;20120;-63
2022/06/11 11:02:52;;;;;;;9.75;3.28;;;21.80;57.60;;;;;;5032416;28;20038;-62
2022/06/11 11:05:20;;;;;;;9.82;3.28;;;21.80;57.60;;;;;;5013017;28;20116;-62
2022/06/11 11:07:57;;;;;;;9.85;2.55;;;21.80;57.50;;;;;;5034704;28;20047;-62
2022/06/11 11:10:34;;;;;;;8.10;2.63;;;21.80;57.60;;;;;;5034808;28;20396;-62
2022/06/11 11:13:22;;;;;;;10.85;2.70;;;21.80;57.30;;;;;;5033693;28;20044;-62
2022/06/11 11:16:13;;;;;;;8.18;2.42;;;21.80;58.00;;;;;;5033024;28;20053;-63
2022/06/11 11:18:51;;;;;;;13.32;3.05;;;21.80;57.10;;;;;;5014557;28;20047;-63
2022/06/11 11:21:22;;;;;;;7.65;3.13;;;21.80;57.10;;;;;;5025202;28;20048;-61
2022/06/11 11:23:49;;;;;;;;;;;21.90;57.10;;;;;;5034422;28;20045;-63
2022/06/11 11:26:39;;;;;;;10.30;2.97;;;21.80;56.80;;;;;;5032016;28;19920;-62
2022/06/11 11:29:12;;;;;;;9.85;2.70;;;21.80;57.10;;;;;;5034055;28;20045;-62
2022/06/11 11:31:57;;;;;;;12.30;3.13;;;21.80;56.90;;;;;;5034207;28;20037;-61
2022/06/11 11:34:29;;;;;;;7.03;2.45;;;21.80;56.90;;;;;;5047951;28;20057;-63
2022/06/11 11:37:04;;;;;;;10.75;2.83;;;21.80;57.00;;;;;;5053700;28;20049;-65
2022/06/11 11:39:33;;;;;;;8.70;2.75;;;21.80;57.10;;;;;;5053733;28;20048;-63
2022/06/11 11:42:08;;;;;;;9.73;3.08;;;21.80;57.20;;;;;;5051383;28;20096;-63
2022/06/11 11:44:58;;;;;;;15.30;2.80;;;21.90;57.10;;;;;;5052340;28;20044;-63
2022/06/11 11:47:33;;;;;;;6.30;2.40;;;21.90;57.10;;;;;;5052742;28;20056;-62
2022/06/11 11:50:31;;;;;;;10.98;2.97;;;21.90;57.10;;;;;;5055445;28;20028;-65
2022/06/11 11:53:05;;;;;;;10.85;2.83;;;21.80;56.90;;;;;;5028358;28;20458;-65
2022/06/11 11:55:36;;;;;;;10.75;2.70;;;21.80;57.00;;;;;;5054243;28;20040;-64
2022/06/11 11:58:14;;;;;;;9.68;3.22;;;21.90;57.10;;;;;;5055725;28;20162;-64
2022/06/11 12:01:07;;;;;;;10.32;2.75;;;21.90;57.00;;;;;;5055477;28;20759;-63
2022/06/11 12:03:42;;;;;;;10.85;3.30;;;21.80;57.20;;;;;;5025090;28;20060;-63
2022/06/11 12:06:11;;;;;;;8.48;2.50;;;21.90;57.40;;;;;;5054585;28;20044;-62
2022/06/11 12:08:49;;;;;;;9.65;3.13;;;21.90;57.40;;;;;;5045658;28;20040;-64
2022/06/11 12:11:23;;;;;;;8.25;2.47;;;21.90;57.40;;;;;;5053782;28;20048;-63
2022/06/11 12:14:10;;;;;;;9.18;3.13;;;21.90;57.40;;;;;;5055090;28;20036;-63
2022/06/11 12:16:40;;;;;;;7.90;2.88;;;21.90;57.20;;;;;;5033917;28;20029;-62
2022/06/11 12:19:20;;;;;;;7.03;2.90;;;21.90;57.20;;;;;;5036809;28;20453;-63
2022/06/11 12:21:58;;;;;;;13.07;3.10;;;21.90;57.10;;;;;;5051286;28;20037;-62
2022/06/11 12:24:34;;;;;;;9.30;3.13;;;21.90;57.00;;;;;;5052329;28;20159;-63
2022/06/11 12:27:04;;;;;;;10.57;2.55;;;21.90;57.30;;;;;;5038929;28;20206;-63
2022/06/11 12:29:42;;;;;;;11.13;2.63;;;21.90;57.30;;;;;;5049616;28;20102;-63
2022/06/11 12:32:18;;;;;;;7.25;2.50;;;21.90;57.10;;;;;;5041912;28;20388;-62
2022/06/11 12:34:44;;;;;;;9.90;3.17;;;21.90;57.20;;;;;;5032808;28;20735;-62
2022/06/11 12:37:25;;;;;;;8.90;2.53;;;21.90;57.20;;;;;;5030493;28;20993;-62
2022/06/11 12:40:11;;;;;;;8.55;2.83;;;21.90;57.20;;;;;;5033670;28;20044;-62
2022/06/11 12:42:58;;;;;;;7.78;2.67;;;21.90;57.10;;;;;;5035162;28;20211;-62
2022/06/11 12:45:47;;;;;;;10.43;2.80;;;21.90;57.10;;;;;;5017812;28;20545;-63
2022/06/11 12:48:19;;;;;;;4.88;2.33;;;21.90;57.10;;;;;;5036416;28;20044;-63
2022/06/11 12:50:48;;;;;;;10.57;2.60;;;21.90;57.10;;;;;;5032629;28;20041;-63
2022/06/11 12:53:35;;;;;;;5.32;2.45;;;21.90;57.10;;;;;;5024124;28;20722;-62
2022/06/11 12:56:17;;;;;;;7.78;3.00;;;21.90;57.20;;;;;;5035627;28;20494;-62
2022/06/11 12:59:16;;;;;;;8.32;2.70;;;21.90;57.10;;;;;;5037274;28;20076;-63
2022/06/11 13:02:20;;;;;;;7.03;2.53;;;22.00;57.20;;;;;;5035808;28;20041;-62
2022/06/11 13:05:14;;;;;;;6.28;2.33;;;21.90;57.20;;;;;;5037036;28;20045;-63
2022/06/11 13:08:18;;;;;;;7.18;2.50;;;21.90;57.10;;;;;;5037425;28;20084;-62
2022/06/11 13:10:56;;;;;;;7.78;3.10;;;21.90;57.10;;;;;;5035058;28;20046;-62
2022/06/11 13:13:49;;;;;;;7.10;2.30;;;21.90;57.10;;;;;;5035657;28;20183;-62
2022/06/11 13:16:29;;;;;;;10.10;2.75;;;21.90;57.10;;;;;;5036035;28;20060;-63
2022/06/11 13:19:05;;;;;;;6.55;2.55;;;21.90;57.20;;;;;;5035111;28;20048;-63
2022/06/11 13:21:34;;;;;;;9.98;2.55;;;21.90;57.20;;;;;;5032308;28;20045;-63
2022/06/11 13:24:18;;;;;;;6.07;2.20;;;22.00;57.10;;;;;;5032574;28;20048;-63
2022/06/11 13:26:56;;;;;;;9.18;2.60;;;22.00;57.30;;;;;;5034200;28;20056;-63